Time;durP1;ratioP1;P1;durP2;ratioP2;P2;SDS_P1;SDS_P2;PMS_P1;PMS_P2;Temp;Humidity;BMP_temperature;BMP_pressure;BME280_temperature;BME280_humidity;BME280_pressure;Samples;Min_cycle;Max_cycle;Signal;HPM_P1;HPM_P2
2022/12/11 20:42:36;;;;;;;;;;;;;;;-9.94;77.77;101208.13;5089718;27;20379;-66
2022/12/11 20:45:02;;;;;;;;;;;;;;;-9.93;77.66;101207.25;5088515;28;19952;-66
2022/12/11 20:47:27;;;;;;;;;;;;;;;-9.93;77.87;101212.44;5087960;28;19944;-67
2022/12/11 20:49:52;;;;;;;;;;;;;;;-9.91;77.98;101209.78;5090275;28;19997;-65
2022/12/11 20:52:18;;;;;;;;;;;;;;;-9.92;77.63;101208.09;5090428;28;19916;-66
2022/12/11 20:54:43;;;;;;;;;;;;;;;-9.87;76.99;101210.56;5088238;28;19918;-66
2022/12/11 20:57:09;;;;;;;;;;;;;;;-9.83;76.58;101212.16;5089444;28;20422;-66
2022/12/11 20:59:35;;;;;;;;;;;;;;;-9.84;76.54;101207.84;5088371;28;19921;-66
2022/12/11 21:02:00;;;;;;;;;;;;;;;-9.81;76.47;101212.97;5089567;28;19920;-72
2022/12/11 21:04:26;;;;;;;;;;;;;;;-9.84;76.66;101213.03;5122171;27;19985;-71
2022/12/11 21:06:55;;;;;;;;;;;;;;;-9.87;76.45;101214.00;5087575;28;19962;-65
2022/12/11 21:09:22;;;;;;;;;;;;;;;-9.88;77.12;101204.50;5088683;28;20454;-73
2022/12/11 21:11:48;;;;;;;;;;;;;;;-9.92;76.65;101210.69;5087003;28;20398;-73
2022/12/11 21:14:14;;;;;;;;;;;;;;;-9.97;77.42;101209.97;5088102;28;19913;-66
2022/12/11 21:16:39;;;;;;;;;;;;;;;-10.00;77.02;101210.06;5088274;28;19922;-64
2022/12/11 21:19:05;;;;;;;;;;;;;;;-10.02;76.93;101207.50;5087318;28;19920;-65
2022/12/11 21:21:30;;;;;;;;;;;;;;;-10.05;76.54;101206.75;5088006;28;19912;-63
2022/12/11 21:23:55;;;;;;;;;;;;;;;-10.04;77.11;101213.66;5087012;28;19920;-63
2022/12/11 21:26:21;;;;;;;;;;;;;;;-10.08;76.24;101214.59;5088164;28;19916;-63
2022/12/11 21:28:46;;;;;;;;;;;;;;;-10.13;76.95;101214.75;5089262;28;19966;-63
2022/12/11 21:31:12;;;;;;;;;;;;;;;-10.15;77.41;101219.13;5087730;28;19917;-62
2022/12/11 21:33:38;;;;;;;;;;;;;;;-10.19;77.21;101218.38;5088670;28;19922;-64
2022/12/11 21:36:04;;;;;;;;;;;;;;;-10.19;77.77;101230.50;5087982;28;19913;-70
2022/12/11 21:38:30;;;;;;;;;;;;;;;-10.14;76.46;101231.22;5088816;28;20364;-68
2022/12/11 21:40:56;;;;;;;;;;;;;;;-10.13;77.32;101230.34;5095813;28;19951;-66
2022/12/11 21:43:22;;;;;;;;;;;;;;;-10.11;77.14;101241.53;5107119;28;20003;-66
2022/12/11 21:45:47;;;;;;;;;;;;;;;-10.17;76.99;101241.72;5109837;28;20030;-67
2022/12/11 21:48:13;;;;;;;;;;;;;;;-10.21;76.95;101240.09;5108056;28;19924;-64
2022/12/11 21:50:38;;;;;;;;;;;;;;;-10.29;77.46;101242.88;5110171;28;20272;-64
2022/12/11 21:53:03;;;;;;;;;;;;;;;-10.35;77.13;101238.72;5100281;28;19961;-69
2022/12/11 21:55:29;;;;;;;;;;;;;;;-10.36;76.79;101251.78;5093822;28;19919;-68
2022/12/11 21:57:54;;;;;;;;;;;;;;;-10.38;77.09;101249.22;5095588;28;19919;-67
2022/12/11 22:00:20;;;;;;;;;;;;;;;-10.67;78.12;101186.84;5094855;28;19927;-67
2022/12/11 22:02:45;;;;;;;;;;;;;;;-10.33;77.54;101238.69;5093133;28;20374;-67
2022/12/11 22:05:10;;;;;;;;;;;;;;;-10.33;77.60;101233.50;5107939;28;19924;-67
2022/12/11 22:07:51;;;;;;;;;;;;;;;-10.33;77.63;101238.69;5099494;28;19935;-67
2022/12/11 22:10:26;;;;;;;;;;;;;;;-10.30;77.50;101237.78;5094029;28;19959;-66
2022/12/11 22:12:51;;;;;;;;;;;;;;;-10.30;77.00;101238.59;5091588;28;19930;-68
2022/12/11 22:15:16;;;;;;;;;;;;;;;-10.33;77.27;101234.34;5093527;28;19920;-68
2022/12/11 22:17:42;;;;;;;;;;;;;;;-10.30;77.90;101233.41;5111143;28;19957;-67
2022/12/11 22:20:07;;;;;;;;;;;;;;;-10.27;77.61;101241.09;5094979;28;19916;-68
2022/12/11 22:22:33;;;;;;;;;;;;;;;-10.27;76.76;101237.66;5115694;28;19919;-68
2022/12/11 22:24:58;;;;;;;;;;;;;;;-10.32;77.07;101237.81;5108097;28;19916;-66
2022/12/11 22:27:23;;;;;;;;;;;;;;;-10.37;76.69;101237.91;5104266;28;20329;-68
2022/12/11 22:29:49;;;;;;;;;;;;;;;-10.39;77.21;101234.53;5104810;28;20380;-67
2022/12/11 22:32:14;;;;;;;;;;;;;;;-10.40;76.50;101235.44;5091822;28;20004;-67
2022/12/11 22:34:39;;;;;;;;;;;;;;;-10.41;76.28;101236.31;5094622;28;19999;-67
2022/12/11 22:37:04;;;;;;;;;;;;;;;-10.41;76.54;101238.06;5094797;28;19912;-66
2022/12/11 22:39:30;;;;;;;;;;;;;;;-10.45;76.17;101232.09;5093522;28;20364;-66
2022/12/11 22:41:55;;;;;;;;;;;;;;;-10.46;76.02;101243.34;5094569;28;19968;-66
2022/12/11 22:44:20;;;;;;;;;;;;;;;-10.47;76.57;101246.00;5092969;28;19983;-67
2022/12/11 22:46:46;;;;;;;;;;;;;;;-10.49;75.86;101243.47;5101493;28;19916;-68
2022/12/11 22:49:12;;;;;;;;;;;;;;;-10.52;76.83;101248.72;5095069;28;19999;-66
2022/12/11 22:51:38;;;;;;;;;;;;;;;-10.55;76.22;101251.38;5093305;28;20011;-66
2022/12/11 22:54:04;;;;;;;;;;;;;;;-10.53;76.62;101252.19;5093934;28;19912;-68
2022/12/11 22:56:29;;;;;;;;;;;;;;;-10.60;76.12;101250.66;5091841;28;20360;-62
2022/12/11 22:58:55;;;;;;;;;;;;;;;-10.67;76.52;101247.38;5094166;28;19912;-64
2022/12/11 23:01:21;;;;;;;;;;;;;;;-10.71;76.63;101246.59;5084025;28;20484;-65
2022/12/11 23:03:47;;;;;;;;;;;;;;;-10.74;77.02;101251.00;5093598;28;19912;-65
2022/12/11 23:06:14;;;;;;;;;;;;;;;-10.81;77.33;101257.22;5114552;28;20461;-65
2022/12/11 23:08:39;;;;;;;;;;;;;;;-10.77;77.41;101248.47;5100115;28;19912;-65
2022/12/11 23:11:12;;;;;;;;;;;;;;;-10.78;77.22;101249.38;5094470;28;20395;-63
2022/12/11 23:13:37;;;;;;;;;;;;;;;-10.83;76.92;101246.88;5092766;28;20241;-65
2022/12/11 23:16:02;;;;;;;;;;;;;;;-10.91;76.72;101244.50;5093065;28;19927;-64
2022/12/11 23:18:28;;;;;;;;;;;;;;;-10.94;77.52;101247.19;5092913;28;19934;-66
2022/12/11 23:20:53;;;;;;;;;;;;;;;-10.92;77.41;101247.13;5092238;28;19934;-66
2022/12/11 23:23:18;;;;;;;;;;;;;;;-10.91;77.78;101254.88;5091465;28;19916;-66
2022/12/11 23:25:43;;;;;;;;;;;;;;;-10.90;77.56;101253.13;5093724;28;19912;-66
2022/12/11 23:28:09;;;;;;;;;;;;;;;-10.95;77.51;101244.63;5091163;28;19943;-66
2022/12/11 23:30:34;;;;;;;;;;;;;;;-10.96;77.31;101245.50;5093938;28;20305;-65
2022/12/11 23:32:59;;;;;;;;;;;;;;;-10.96;78.07;101253.28;5062990;28;20042;-65
2022/12/11 23:35:25;;;;;;;;;;;;;;;-10.95;77.45;101261.03;5093387;28;19962;-64
2022/12/11 23:37:50;;;;;;;;;;;;;;;-10.98;76.68;101266.28;5093875;28;19919;-64
2022/12/11 23:40:15;;;;;;;;;;;;;;;-10.99;77.40;101261.16;5091102;28;19961;-64
2022/12/11 23:42:40;;;;;;;;;;;;;;;-11.00;77.16;101270.66;5094007;28;20030;-66
2022/12/11 23:45:06;;;;;;;;;;;;;;;-10.97;76.33;101269.75;5091180;28;19958;-64
2022/12/11 23:47:31;;;;;;;;;;;;;;;-10.96;76.53;101266.25;5093388;28;19931;-65
2022/12/11 23:49:56;;;;;;;;;;;;;;;-10.93;76.69;101258.41;5093603;28;19958;-64
2022/12/11 23:52:22;;;;;;;;;;;;;;;-10.95;75.63;101260.19;5091307;28;20363;-70
2022/12/11 23:54:48;;;;;;;;;;;;;;;-11.01;76.11;101270.69;5090837;28;19920;-66
2022/12/11 23:57:13;;;;;;;;;;;;;;;-11.02;75.92;101258.63;5091235;28;19916;-66
2022/12/11 23:59:38;;;;;;;;;;;;;;;-11.05;76.17;101259.53;5092368;28;19912;-65
